FZAA/FIH METAR and TAF weather

Enter ICAO airport designator
Station Type Date Time Source
FZAA METAR 2018/01/22 20:00 UTC NOAA

FZAA 222000Z 24004KT 9999 FEW016 SCT100 27/22 Q1011 NOSIG


Station Type Date Time Source
FZAA Decoded METAR 2018/01/22 20:00 UTC NOAA

Kinshasa / N'Djili, Congo, Democratic Republic of the (FZAA) 04-23S 015-26E 312M
Jan 22, 2018 - 03:00 PM EST / 2018.01.22 2000 UTC
Wind: from the WSW (240 degrees) at 5 MPH (4 KT):0
Visibility: greater than 7 mile(s):0
Sky conditions: partly cloudy
Temperature: 80 F (27 C)
Dew Point: 71 F (22 C)
Relative Humidity: 74%
Pressure (altimeter): 29.85 in. Hg (1011 hPa)
ob: FZAA 222000Z 24004KT 9999 FEW016 SCT100 27/22 Q1011 NOSIG
cycle: 20

Station Type Date Time Source
FZAA TAF 2018/01/22 12:39 UTC NOAA

TAF FZAA 221100Z 2212/2318 26006KT 8000 SCT022
BECMG 2213/2215 FEW024 FEW030CB PROB30
TEMPO 2216/2219 TS
BECMG 2219/2221 SCT018
BECMG 2311/2313 FEW024 FEW030CB


Example: see airport list